sensor_id;sensor_type;location;lat;lon;timestamp;pressure;altitude;pressure_sealevel;temperature;humidity
57616;BME280;43816;52.054;-9.494;2022-09-17T00:00:09;102214.19;;;16.85;54.46
57616;BME280;43816;52.054;-9.494;2022-09-17T00:00:20;102204.19;;;16.86;54.35
57616;BME280;43816;52.054;-9.494;2022-09-17T00:00:30;102209.63;;;16.86;54.29
57616;BME280;43816;52.054;-9.494;2022-09-17T00:00:40;102212.44;;;16.84;54.56
57616;BME280;43816;52.054;-9.494;2022-09-17T00:00:53;102220.50;;;16.86;54.44
57616;BME280;43816;52.054;-9.494;2022-09-17T00:01:05;102214.19;;;16.85;54.57
57616;BME280;43816;52.054;-9.494;2022-09-17T00:01:21;102208.75;;;16.85;54.50
57616;BME280;43816;52.054;-9.494;2022-09-17T00:01:31;102207.88;;;16.85;54.66
57616;BME280;43816;52.054;-9.494;2022-09-17T00:01:41;102215.16;;;16.84;54.37
57616;BME280;43816;52.054;-9.494;2022-09-17T00:01:52;102219.63;;;16.85;54.55
57616;BME280;43816;52.054;-9.494;2022-09-17T00:02:02;102215.16;;;16.84;54.42
57616;BME280;43816;52.054;-9.494;2022-09-17T00:02:13;102213.41;;;16.83;54.36
57616;BME280;43816;52.054;-9.494;2022-09-17T00:02:23;102207.97;;;16.83;54.58
57616;BME280;43816;52.054;-9.494;2022-09-17T00:02:33;102211.56;;;16.83;54.38
57616;BME280;43816;52.054;-9.494;2022-09-17T00:02:44;102213.31;;;16.85;54.13
57616;BME280;43816;52.054;-9.494;2022-09-17T00:02:54;102210.69;;;16.83;54.25
57616;BME280;43816;52.054;-9.494;2022-09-17T00:03:05;102206.28;;;16.82;54.38
57616;BME280;43816;52.054;-9.494;2022-09-17T00:03:16;102220.72;;;16.82;54.57
57616;BME280;43816;52.054;-9.494;2022-09-17T00:03:27;102209.84;;;16.82;54.31
57616;BME280;43816;52.054;-9.494;2022-09-17T00:03:37;102213.53;;;16.81;54.24
57616;BME280;43816;52.054;-9.494;2022-09-17T00:03:56;102215.28;;;16.82;54.84
57616;BME280;43816;52.054;-9.494;2022-09-17T00:04:06;102219.88;;;16.82;54.68
57616;BME280;43816;52.054;-9.494;2022-09-17T00:04:17;102214.53;;;16.80;54.46
57616;BME280;43816;52.054;-9.494;2022-09-17T00:04:27;102215.41;;;16.81;54.21
57616;BME280;43816;52.054;-9.494;2022-09-17T00:04:38;102212.69;;;16.81;54.67
57616;BME280;43816;52.054;-9.494;2022-09-17T00:04:48;102212.69;;;16.81;54.58
57616;BME280;43816;52.054;-9.494;2022-09-17T00:04:58;102220.84;;;16.81;54.60
57616;BME280;43816;52.054;-9.494;2022-09-17T00:05:09;102208.34;;;16.78;54.27
57616;BME280;43816;52.054;-9.494;2022-09-17T00:05:19;102212.91;;;16.78;54.35
57616;BME280;43816;52.054;-9.494;2022-09-17T00:05:29;102211.94;;;16.79;54.54
57616;BME280;43816;52.054;-9.494;2022-09-17T00:05:40;102215.53;;;16.79;54.65
57616;BME280;43816;52.054;-9.494;2022-09-17T00:05:58;102210.94;;;16.80;54.56
57616;BME280;43816;52.054;-9.494;2022-09-17T00:06:10;102210.94;;;16.80;54.81
57616;BME280;43816;52.054;-9.494;2022-09-17T00:06:22;102210.09;;;16.79;54.26
57616;BME280;43816;52.054;-9.494;2022-09-17T00:06:34;102206.50;;;16.79;54.54
57616;BME280;43816;52.054;-9.494;2022-09-17T00:06:45;102220.97;;;16.79;54.70
57616;BME280;43816;52.054;-9.494;2022-09-17T00:06:55;102212.81;;;16.79;54.59
57616;BME280;43816;52.054;-9.494;2022-09-17T00:07:05;102212.81;;;16.79;54.77
57616;BME280;43816;52.054;-9.494;2022-09-17T00:07:16;102213.66;;;16.80;54.31
57616;BME280;43816;52.054;-9.494;2022-09-17T00:07:27;102214.66;;;16.79;54.32
57616;BME280;43816;52.054;-9.494;2022-09-17T00:07:37;102218.97;;;16.81;54.49
57616;BME280;43816;52.054;-9.494;2022-09-17T00:07:48;102214.66;;;16.79;54.33
57616;BME280;43816;52.054;-9.494;2022-09-17T00:07:58;102207.38;;;16.79;54.43
57616;BME280;43816;52.054;-9.494;2022-09-17T00:08:12;102209.22;;;16.79;54.39
57616;BME280;43816;52.054;-9.494;2022-09-17T00:08:22;102214.66;;;16.79;54.52
57616;BME280;43816;52.054;-9.494;2022-09-17T00:08:34;102203.91;;;16.77;54.20
57616;BME280;43816;52.054;-9.494;2022-09-17T00:08:44;102204.78;;;16.78;54.83
57616;BME280;43816;52.054;-9.494;2022-09-17T00:08:55;102205.75;;;16.77;54.56
57616;BME280;43816;52.054;-9.494;2022-09-17T00:09:06;102197.59;;;16.77;54.44
57616;BME280;43816;52.054;-9.494;2022-09-17T00:09:16;102205.75;;;16.77;54.30
57616;BME280;43816;52.054;-9.494;2022-09-17T00:09:27;102206.63;;;16.77;54.41
57616;BME280;43816;52.054;-9.494;2022-09-17T00:09:37;102209.47;;;16.76;54.69
57616;BME280;43816;52.054;-9.494;2022-09-17T00:09:47;102204.03;;;16.76;54.60
57616;BME280;43816;52.054;-9.494;2022-09-17T00:09:57;102212.06;;;16.77;54.26
57616;BME280;43816;52.054;-9.494;2022-09-17T00:10:08;102204.88;;;16.76;54.45
57616;BME280;43816;52.054;-9.494;2022-09-17T00:10:19;102205.75;;;16.77;54.69
57616;BME280;43816;52.054;-9.494;2022-09-17T00:10:30;102207.59;;;16.76;54.65
57616;BME280;43816;52.054;-9.494;2022-09-17T00:10:42;102209.47;;;16.76;54.58
57616;BME280;43816;52.054;-9.494;2022-09-17T00:10:53;102209.47;;;16.76;54.47
57616;BME280;43816;52.054;-9.494;2022-09-17T00:11:08;102209.47;;;16.76;54.66
57616;BME280;43816;52.054;-9.494;2022-09-17T00:11:25;102206.75;;;16.76;54.50
57616;BME280;43816;52.054;-9.494;2022-09-17T00:11:39;102209.47;;;16.76;54.64
57616;BME280;43816;52.054;-9.494;2022-09-17T00:11:49;102210.44;;;16.75;54.43
57616;BME280;43816;52.054;-9.494;2022-09-17T00:12:00;102212.31;;;16.74;54.86
57616;BME280;43816;52.054;-9.494;2022-09-17T00:12:10;102208.75;;;16.74;54.51
57616;BME280;43816;52.054;-9.494;2022-09-17T00:12:20;102206.88;;;16.74;54.46
57616;BME280;43816;52.054;-9.494;2022-09-17T00:12:31;102211.47;;;16.74;54.42
57616;BME280;43816;52.054;-9.494;2022-09-17T00:12:41;102211.47;;;16.74;54.91
57616;BME280;43816;52.054;-9.494;2022-09-17T00:12:51;102202.41;;;16.73;54.36
57616;BME280;43816;52.054;-9.494;2022-09-17T00:13:02;102210.56;;;16.73;54.60
57616;BME280;43816;52.054;-9.494;2022-09-17T00:13:13;102208.75;;;16.74;54.48
57616;BME280;43816;52.054;-9.494;2022-09-17T00:13:23;102209.72;;;16.73;54.24
57616;BME280;43816;52.054;-9.494;2022-09-17T00:13:33;102207.72;;;16.75;54.31
57616;BME280;43816;52.054;-9.494;2022-09-17T00:13:44;102208.84;;;16.72;54.60
57616;BME280;43816;52.054;-9.494;2022-09-17T00:13:56;102217.00;;;16.72;54.58
57616;BME280;43816;52.054;-9.494;2022-09-17T00:14:12;102207.00;;;16.73;54.71
57616;BME280;43816;52.054;-9.494;2022-09-17T00:14:23;102207.00;;;16.73;54.72
57616;BME280;43816;52.054;-9.494;2022-09-17T00:14:33;102204.28;;;16.73;54.94
57616;BME280;43816;52.054;-9.494;2022-09-17T00:14:43;102209.72;;;16.73;54.56
57616;BME280;43816;52.054;-9.494;2022-09-17T00:14:53;102215.16;;;16.73;54.72
57616;BME280;43816;52.054;-9.494;2022-09-17T00:15:04;102203.41;;;16.72;54.74
57616;BME280;43816;52.054;-9.494;2022-09-17T00:15:15;102207.00;;;16.73;54.64
57616;BME280;43816;52.054;-9.494;2022-09-17T00:15:25;102206.13;;;16.72;54.61
57616;BME280;43816;52.054;-9.494;2022-09-17T00:15:44;102209.72;;;16.73;54.39
57616;BME280;43816;52.054;-9.494;2022-09-17T00:15:54;102207.97;;;16.72;54.35
57616;BME280;43816;52.054;-9.494;2022-09-17T00:16:05;102215.16;;;16.73;54.36
57616;BME280;43816;52.054;-9.494;2022-09-17T00:16:39;102212.56;;;16.71;54.60
57616;BME280;43816;52.054;-9.494;2022-09-17T00:16:50;102203.53;;;16.71;54.70
57616;BME280;43816;52.054;-9.494;2022-09-17T00:17:00;102206.25;;;16.71;54.52
57616;BME280;43816;52.054;-9.494;2022-09-17T00:17:11;102216.25;;;16.70;55.01
57616;BME280;43816;52.054;-9.494;2022-09-17T00:17:21;102211.69;;;16.71;54.78
57616;BME280;43816;52.054;-9.494;2022-09-17T00:17:31;102205.38;;;16.70;54.79
57616;BME280;43816;52.054;-9.494;2022-09-17T00:17:42;102205.38;;;16.70;54.51
57616;BME280;43816;52.054;-9.494;2022-09-17T00:17:54;102205.53;;;16.69;54.31
57616;BME280;43816;52.054;-9.494;2022-09-17T00:18:04;102209.09;;;16.69;54.80
57616;BME280;43816;52.054;-9.494;2022-09-17T00:18:14;102209.09;;;16.69;54.65
57616;BME280;43816;52.054;-9.494;2022-09-17T00:18:25;102205.38;;;16.70;54.74
57616;BME280;43816;52.054;-9.494;2022-09-17T00:18:35;102211.69;;;16.71;54.77
57616;BME280;43816;52.054;-9.494;2022-09-17T00:18:45;102208.09;;;16.70;54.60
57616;BME280;43816;52.054;-9.494;2022-09-17T00:18:56;102206.38;;;16.69;54.58
57616;BME280;43816;52.054;-9.494;2022-09-17T00:19:12;102207.22;;;16.70;54.54
57616;BME280;43816;52.054;-9.494;2022-09-17T00:19:23;102204.53;;;16.70;54.36
57616;BME280;43816;52.054;-9.494;2022-09-17T00:19:33;102208.97;;;16.71;54.48
57616;BME280;43816;52.054;-9.494;2022-09-17T00:19:43;102203.66;;;16.69;54.80
57616;BME280;43816;52.054;-9.494;2022-09-17T00:19:54;102216.25;;;16.70;54.49
57616;BME280;43816;52.054;-9.494;2022-09-17T00:20:05;102209.09;;;16.69;54.43
57616;BME280;43816;52.054;-9.494;2022-09-17T00:20:15;102209.09;;;16.69;54.67
57616;BME280;43816;52.054;-9.494;2022-09-17T00:20:26;102205.53;;;16.69;54.81
57616;BME280;43816;52.054;-9.494;2022-09-17T00:20:40;102207.34;;;16.68;54.65
57616;BME280;43816;52.054;-9.494;2022-09-17T00:20:51;102205.66;;;16.67;54.64
57616;BME280;43816;52.054;-9.494;2022-09-17T00:21:02;102206.50;;;16.68;54.87
57616;BME280;43816;52.054;-9.494;2022-09-17T00:21:16;102203.91;;;16.66;54.68
57616;BME280;43816;52.054;-9.494;2022-09-17T00:21:27;102204.75;;;16.67;54.76
57616;BME280;43816;52.054;-9.494;2022-09-17T00:21:39;102201.19;;;16.66;54.66
57616;BME280;43816;52.054;-9.494;2022-09-17T00:21:50;102204.75;;;16.67;54.46
57616;BME280;43816;52.054;-9.494;2022-09-17T00:22:00;102209.22;;;16.68;54.87
57616;BME280;43816;52.054;-9.494;2022-09-17T00:22:10;102204.75;;;16.67;54.65
57616;BME280;43816;52.054;-9.494;2022-09-17T00:22:21;102206.63;;;16.66;54.87
57616;BME280;43816;52.054;-9.494;2022-09-17T00:22:31;102207.47;;;16.67;54.80
57616;BME280;43816;52.054;-9.494;2022-09-17T00:22:41;102205.78;;;16.65;54.61
57616;BME280;43816;52.054;-9.494;2022-09-17T00:22:52;102200.34;;;16.65;54.99
57616;BME280;43816;52.054;-9.494;2022-09-17T00:23:02;102204.75;;;16.67;54.67
57616;BME280;43816;52.054;-9.494;2022-09-17T00:23:13;102207.59;;;16.65;54.90
57616;BME280;43816;52.054;-9.494;2022-09-17T00:23:24;102202.16;;;16.65;54.57
57616;BME280;43816;52.054;-9.494;2022-09-17T00:23:34;102196.72;;;16.65;54.52
57616;BME280;43816;52.054;-9.494;2022-09-17T00:23:44;102207.59;;;16.65;54.28
57616;BME280;43816;52.054;-9.494;2022-09-17T00:24:01;102205.78;;;16.65;54.74
57616;BME280;43816;52.054;-9.494;2022-09-17T00:24:13;102204.03;;;16.64;54.79
57616;BME280;43816;52.054;-9.494;2022-09-17T00:24:23;102209.34;;;16.66;54.87
57616;BME280;43816;52.054;-9.494;2022-09-17T00:24:33;102204.88;;;16.65;54.41
57616;BME280;43816;52.054;-9.494;2022-09-17T00:24:44;102204.03;;;16.64;54.47
57616;BME280;43816;52.054;-9.494;2022-09-17T00:24:54;102204.03;;;16.64;54.88
57616;BME280;43816;52.054;-9.494;2022-09-17T00:25:06;102199.56;;;16.63;54.49
57616;BME280;43816;52.054;-9.494;2022-09-17T00:25:16;102205.00;;;16.63;54.54
57616;BME280;43816;52.054;-9.494;2022-09-17T00:25:27;102205.00;;;16.63;54.42
57616;BME280;43816;52.054;-9.494;2022-09-17T00:25:41;102199.56;;;16.63;54.73
57616;BME280;43816;52.054;-9.494;2022-09-17T00:25:52;102200.56;;;16.62;54.87
57616;BME280;43816;52.054;-9.494;2022-09-17T00:26:04;102202.41;;;16.62;54.51
57616;BME280;43816;52.054;-9.494;2022-09-17T00:26:14;102203.28;;;16.62;55.12
57616;BME280;43816;52.054;-9.494;2022-09-17T00:26:25;102206.00;;;16.62;54.58
57616;BME280;43816;52.054;-9.494;2022-09-17T00:26:36;102201.53;;;16.61;55.08
57616;BME280;43816;52.054;-9.494;2022-09-17T00:26:47;102208.72;;;16.62;55.02
57616;BME280;43816;52.054;-9.494;2022-09-17T00:26:58;102207.84;;;16.62;54.76
57616;BME280;43816;52.054;-9.494;2022-09-17T00:27:08;102207.84;;;16.62;54.87
57616;BME280;43816;52.054;-9.494;2022-09-17T00:27:18;102206.00;;;16.62;54.87
57616;BME280;43816;52.054;-9.494;2022-09-17T00:27:28;102201.53;;;16.61;54.80
57616;BME280;43816;52.054;-9.494;2022-09-17T00:27:39;102206.97;;;16.61;54.51
57616;BME280;43816;52.054;-9.494;2022-09-17T00:27:49;102206.97;;;16.61;55.03
57616;BME280;43816;52.054;-9.494;2022-09-17T00:27:59;102205.28;;;16.60;54.48
57616;BME280;43816;52.054;-9.494;2022-09-17T00:28:11;102209.69;;;16.61;54.89
57616;BME280;43816;52.054;-9.494;2022-09-17T00:28:22;102201.53;;;16.61;54.57
57616;BME280;43816;52.054;-9.494;2022-09-17T00:28:32;102209.81;;;16.60;55.00
57616;BME280;43816;52.054;-9.494;2022-09-17T00:28:43;102206.13;;;16.61;54.89
57616;BME280;43816;52.054;-9.494;2022-09-17T00:28:54;102204.38;;;16.60;54.88
57616;BME280;43816;52.054;-9.494;2022-09-17T00:29:05;102208.00;;;16.60;54.78
57616;BME280;43816;52.054;-9.494;2022-09-17T00:29:16;102209.69;;;16.61;54.39
57616;BME280;43816;52.054;-9.494;2022-09-17T00:29:27;102205.28;;;16.60;54.63
57616;BME280;43816;52.054;-9.494;2022-09-17T00:29:37;102209.81;;;16.60;55.15
57616;BME280;43816;52.054;-9.494;2022-09-17T00:29:47;102206.25;;;16.59;54.62
57616;BME280;43816;52.054;-9.494;2022-09-17T00:29:58;102202.66;;;16.59;54.99
57616;BME280;43816;52.054;-9.494;2022-09-17T00:30:09;102205.38;;;16.59;54.73
57616;BME280;43816;52.054;-9.494;2022-09-17T00:30:19;102204.50;;;16.58;54.57
57616;BME280;43816;52.054;-9.494;2022-09-17T00:30:29;102207.22;;;16.58;54.98
57616;BME280;43816;52.054;-9.494;2022-09-17T00:30:41;102208.09;;;16.59;54.98
57616;BME280;43816;52.054;-9.494;2022-09-17T00:30:52;102208.97;;;16.59;54.71
57616;BME280;43816;52.054;-9.494;2022-09-17T00:31:07;102202.66;;;16.59;54.89
57616;BME280;43816;52.054;-9.494;2022-09-17T00:31:18;102203.53;;;16.59;54.98
57616;BME280;43816;52.054;-9.494;2022-09-17T00:31:29;102206.38;;;16.58;54.87
57616;BME280;43816;52.054;-9.494;2022-09-17T00:31:39;102208.97;;;16.59;54.93
57616;BME280;43816;52.054;-9.494;2022-09-17T00:31:50;102207.22;;;16.58;54.92
57616;BME280;43816;52.054;-9.494;2022-09-17T00:32:00;102200.94;;;16.58;54.46
57616;BME280;43816;52.054;-9.494;2022-09-17T00:32:10;102208.09;;;16.59;54.97
57616;BME280;43816;52.054;-9.494;2022-09-17T00:32:21;102204.50;;;16.58;54.83
57616;BME280;43816;52.054;-9.494;2022-09-17T00:32:31;102205.50;;;16.57;54.81
57616;BME280;43816;52.054;-9.494;2022-09-17T00:32:41;102205.50;;;16.57;54.91
57616;BME280;43816;52.054;-9.494;2022-09-17T00:32:51;102210.94;;;16.57;54.64
57616;BME280;43816;52.054;-9.494;2022-09-17T00:33:02;102206.38;;;16.58;54.72
57616;BME280;43816;52.054;-9.494;2022-09-17T00:33:14;102205.50;;;16.57;55.11
57616;BME280;43816;52.054;-9.494;2022-09-17T00:33:25;102201.78;;;16.58;54.70
57616;BME280;43816;52.054;-9.494;2022-09-17T00:33:36;102198.34;;;16.56;54.47
57616;BME280;43816;52.054;-9.494;2022-09-17T00:33:46;102202.03;;;16.55;55.14
57616;BME280;43816;52.054;-9.494;2022-09-17T00:33:58;102206.47;;;16.56;54.77
57616;BME280;43816;52.054;-9.494;2022-09-17T00:34:09;102201.06;;;16.56;54.66
57616;BME280;43816;52.054;-9.494;2022-09-17T00:34:19;102207.47;;;16.55;54.93
57616;BME280;43816;52.054;-9.494;2022-09-17T00:34:30;102198.34;;;16.56;54.66
57616;BME280;43816;52.054;-9.494;2022-09-17T00:34:41;102198.34;;;16.56;54.75
57616;BME280;43816;52.054;-9.494;2022-09-17T00:34:51;102201.06;;;16.56;54.74
57616;BME280;43816;52.054;-9.494;2022-09-17T00:35:02;102202.03;;;16.55;54.71
57616;BME280;43816;52.054;-9.494;2022-09-17T00:35:12;102202.91;;;16.56;55.01
57616;BME280;43816;52.054;-9.494;2022-09-17T00:35:26;102202.03;;;16.55;54.84
57616;BME280;43816;52.054;-9.494;2022-09-17T00:35:37;102198.34;;;16.56;54.90
57616;BME280;43816;52.054;-9.494;2022-09-17T00:35:57;102200.19;;;16.56;54.67
57616;BME280;43816;52.054;-9.494;2022-09-17T00:36:08;102202.03;;;16.55;55.01
57616;BME280;43816;52.054;-9.494;2022-09-17T00:36:19;102198.44;;;16.55;54.72
57616;BME280;43816;52.054;-9.494;2022-09-17T00:36:29;102199.31;;;16.55;54.90
57616;BME280;43816;52.054;-9.494;2022-09-17T00:36:40;102195.75;;;16.55;54.95
57616;BME280;43816;52.054;-9.494;2022-09-17T00:36:50;102199.31;;;16.55;55.00
57616;BME280;43816;52.054;-9.494;2022-09-17T00:37:00;102198.44;;;16.55;54.71
57616;BME280;43816;52.054;-9.494;2022-09-17T00:37:11;102199.31;;;16.55;54.83
57616;BME280;43816;52.054;-9.494;2022-09-17T00:37:21;102204.75;;;16.55;54.72
57616;BME280;43816;52.054;-9.494;2022-09-17T00:37:32;102202.03;;;16.55;55.01
57616;BME280;43816;52.054;-9.494;2022-09-17T00:37:42;102197.59;;;16.54;54.55
57616;BME280;43816;52.054;-9.494;2022-09-17T00:37:52;102205.75;;;16.54;54.63
57616;BME280;43816;52.054;-9.494;2022-09-17T00:38:03;102203.03;;;16.54;55.15
57616;BME280;43816;52.054;-9.494;2022-09-17T00:38:13;102208.47;;;16.54;54.75
57616;BME280;43816;52.054;-9.494;2022-09-17T00:38:23;102204.00;;;16.53;54.60
57616;BME280;43816;52.054;-9.494;2022-09-17T00:38:34;102204.00;;;16.53;55.17
57616;BME280;43816;52.054;-9.494;2022-09-17T00:38:47;102198.56;;;16.53;54.89
57616;BME280;43816;52.054;-9.494;2022-09-17T00:38:58;102197.72;;;16.53;54.81
57616;BME280;43816;52.054;-9.494;2022-09-17T00:39:10;102206.72;;;16.53;54.98
57616;BME280;43816;52.054;-9.494;2022-09-17T00:39:21;102198.56;;;16.53;54.68
57616;BME280;43816;52.054;-9.494;2022-09-17T00:39:31;102201.28;;;16.53;54.80
57616;BME280;43816;52.054;-9.494;2022-09-17T00:39:41;102204.00;;;16.53;54.51
57616;BME280;43816;52.054;-9.494;2022-09-17T00:39:51;102204.13;;;16.52;54.91
57616;BME280;43816;52.054;-9.494;2022-09-17T00:40:02;102200.44;;;16.53;54.77
57616;BME280;43816;52.054;-9.494;2022-09-17T00:40:13;102199.56;;;16.52;55.03
57616;BME280;43816;52.054;-9.494;2022-09-17T00:40:23;102202.19;;;16.54;54.61
57616;BME280;43816;52.054;-9.494;2022-09-17T00:40:34;102196.88;;;16.52;55.07
57616;BME280;43816;52.054;-9.494;2022-09-17T00:40:44;102202.28;;;16.52;54.90
57616;BME280;43816;52.054;-9.494;2022-09-17T00:40:55;102199.56;;;16.52;54.57
57616;BME280;43816;52.054;-9.494;2022-09-17T00:41:06;102203.16;;;16.53;55.02
57616;BME280;43816;52.054;-9.494;2022-09-17T00:41:17;102203.16;;;16.53;54.69
57616;BME280;43816;52.054;-9.494;2022-09-17T00:41:31;102202.28;;;16.52;54.92
57616;BME280;43816;52.054;-9.494;2022-09-17T00:41:42;102208.59;;;16.53;54.90
57616;BME280;43816;52.054;-9.494;2022-09-17T00:41:52;102202.28;;;16.52;54.65
57616;BME280;43816;52.054;-9.494;2022-09-17T00:42:03;102202.28;;;16.52;54.54
57616;BME280;43816;52.054;-9.494;2022-09-17T00:42:14;102201.41;;;16.52;54.85
57616;BME280;43816;52.054;-9.494;2022-09-17T00:42:24;102195.97;;;16.52;54.94
57616;BME280;43816;52.054;-9.494;2022-09-17T00:42:35;102195.13;;;16.51;54.77
57616;BME280;43816;52.054;-9.494;2022-09-17T00:42:45;102207.72;;;16.52;54.70
57616;BME280;43816;52.054;-9.494;2022-09-17T00:42:56;102204.25;;;16.50;55.09
57616;BME280;43816;52.054;-9.494;2022-09-17T00:43:09;102208.69;;;16.51;54.96
57616;BME280;43816;52.054;-9.494;2022-09-17T00:43:39;102198.81;;;16.50;55.19
57616;BME280;43816;52.054;-9.494;2022-09-17T00:43:54;102194.38;;;16.49;54.83
57616;BME280;43816;52.054;-9.494;2022-09-17T00:44:55;102201.53;;;16.50;54.92
57616;BME280;43816;52.054;-9.494;2022-09-17T00:45:08;102198.94;;;16.49;54.87
57616;BME280;43816;52.054;-9.494;2022-09-17T00:45:19;102197.22;;;16.48;54.99
57616;BME280;43816;52.054;-9.494;2022-09-17T00:45:30;102199.94;;;16.48;55.07
57616;BME280;43816;52.054;-9.494;2022-09-17T00:45:40;102199.09;;;16.47;54.74
57616;BME280;43816;52.054;-9.494;2022-09-17T00:45:58;102199.09;;;16.47;54.71
57616;BME280;43816;52.054;-9.494;2022-09-17T00:46:35;102201.81;;;16.47;54.88
57616;BME280;43816;52.054;-9.494;2022-09-17T00:46:46;102200.06;;;16.46;54.87
57616;BME280;43816;52.054;-9.494;2022-09-17T00:46:58;102202.66;;;16.48;54.82
57616;BME280;43816;52.054;-9.494;2022-09-17T00:47:16;102200.06;;;16.46;54.99
57616;BME280;43816;52.054;-9.494;2022-09-17T00:47:34;102196.47;;;16.45;54.67
57616;BME280;43816;52.054;-9.494;2022-09-17T00:47:57;102205.50;;;16.46;54.66
57616;BME280;43816;52.054;-9.494;2022-09-17T00:48:09;102200.06;;;16.46;55.08
57616;BME280;43816;52.054;-9.494;2022-09-17T00:48:20;102202.78;;;16.46;54.86
57616;BME280;43816;52.054;-9.494;2022-09-17T00:48:31;102201.91;;;16.45;54.87
57616;BME280;43816;52.054;-9.494;2022-09-17T00:48:42;102202.78;;;16.46;55.24
57616;BME280;43816;52.054;-9.494;2022-09-17T00:48:53;102200.91;;;16.46;55.22
57616;BME280;43816;52.054;-9.494;2022-09-17T00:49:13;102202.91;;;16.44;54.73
57616;BME280;43816;52.054;-9.494;2022-09-17T00:49:28;102197.47;;;16.44;55.05
57616;BME280;43816;52.054;-9.494;2022-09-17T00:49:39;102194.75;;;16.44;54.79
57616;BME280;43816;52.054;-9.494;2022-09-17T00:49:54;102196.59;;;16.44;54.82
57616;BME280;43816;52.054;-9.494;2022-09-17T00:50:09;102202.91;;;16.44;54.60
57616;BME280;43816;52.054;-9.494;2022-09-17T00:50:27;102198.44;;;16.43;55.01
57616;BME280;43816;52.054;-9.494;2022-09-17T00:50:40;102199.31;;;16.44;55.19
57616;BME280;43816;52.054;-9.494;2022-09-17T00:50:51;102199.31;;;16.44;55.26
57616;BME280;43816;52.054;-9.494;2022-09-17T00:51:05;102204.75;;;16.44;54.92
57616;BME280;43816;52.054;-9.494;2022-09-17T00:51:20;102197.47;;;16.44;55.21
57616;BME280;43816;52.054;-9.494;2022-09-17T00:51:47;102197.56;;;16.43;54.96
57616;BME280;43816;52.054;-9.494;2022-09-17T00:52:08;102199.31;;;16.44;55.14
57616;BME280;43816;52.054;-9.494;2022-09-17T00:52:24;102203.00;;;16.43;54.86
57616;BME280;43816;52.054;-9.494;2022-09-17T00:52:48;102196.72;;;16.42;55.27
57616;BME280;43816;52.054;-9.494;2022-09-17T00:53:12;102195.84;;;16.42;55.28
57616;BME280;43816;52.054;-9.494;2022-09-17T00:53:24;102201.28;;;16.42;54.92
57616;BME280;43816;52.054;-9.494;2022-09-17T00:53:34;102198.56;;;16.42;55.10
57616;BME280;43816;52.054;-9.494;2022-09-17T00:53:45;102203.13;;;16.41;54.74
57616;BME280;43816;52.054;-9.494;2022-09-17T00:53:56;102200.41;;;16.41;55.12
57616;BME280;43816;52.054;-9.494;2022-09-17T00:54:09;102205.84;;;16.41;54.91
57616;BME280;43816;52.054;-9.494;2022-09-17T00:54:20;102194.97;;;16.41;55.29
57616;BME280;43816;52.054;-9.494;2022-09-17T00:54:31;102200.41;;;16.41;54.88
57616;BME280;43816;52.054;-9.494;2022-09-17T00:54:45;102196.00;;;16.40;55.02
57616;BME280;43816;52.054;-9.494;2022-09-17T00:55:20;102200.53;;;16.40;54.94
57616;BME280;43816;52.054;-9.494;2022-09-17T00:55:36;102205.09;;;16.39;54.88
57616;BME280;43816;52.054;-9.494;2022-09-17T00:56:25;102197.06;;;16.38;55.19
57616;BME280;43816;52.054;-9.494;2022-09-17T00:56:38;102199.69;;;16.39;54.85
57616;BME280;43816;52.054;-9.494;2022-09-17T00:56:50;102198.69;;;16.40;55.01
57616;BME280;43816;52.054;-9.494;2022-09-17T00:57:02;102196.97;;;16.39;54.96
57616;BME280;43816;52.054;-9.494;2022-09-17T00:57:12;102206.97;;;16.39;55.15
57616;BME280;43816;52.054;-9.494;2022-09-17T00:57:23;102201.53;;;16.39;54.90
57616;BME280;43816;52.054;-9.494;2022-09-17T00:57:34;102201.53;;;16.39;55.06
57616;BME280;43816;52.054;-9.494;2022-09-17T00:57:45;102197.94;;;16.38;54.98
57616;BME280;43816;52.054;-9.494;2022-09-17T00:57:58;102192.63;;;16.37;55.05
57616;BME280;43816;52.054;-9.494;2022-09-17T00:58:11;102194.38;;;16.38;55.22
57616;BME280;43816;52.054;-9.494;2022-09-17T00:58:24;102200.66;;;16.38;54.74
57616;BME280;43816;52.054;-9.494;2022-09-17T00:58:35;102200.66;;;16.38;55.06
57616;BME280;43816;52.054;-9.494;2022-09-17T00:58:46;102199.78;;;16.38;55.31
57616;BME280;43816;52.054;-9.494;2022-09-17T00:58:56;102188.94;;;16.38;55.23
57616;BME280;43816;52.054;-9.494;2022-09-17T00:59:07;102191.66;;;16.38;55.07
57616;BME280;43816;52.054;-9.494;2022-09-17T00:59:18;102194.38;;;16.38;54.95
57616;BME280;43816;52.054;-9.494;2022-09-17T00:59:29;102196.22;;;16.37;55.33
57616;BME280;43816;52.054;-9.494;2022-09-17T00:59:40;102192.63;;;16.37;55.24
57616;BME280;43816;52.054;-9.494;2022-09-17T00:59:50;102198.94;;;16.37;55.33
57616;BME280;43816;52.054;-9.494;2022-09-17T01:00:03;102196.22;;;16.37;55.13
57616;BME280;43816;52.054;-9.494;2022-09-17T01:00:14;102196.34;;;16.36;54.94
57616;BME280;43816;52.054;-9.494;2022-09-17T01:00:26;102196.34;;;16.36;55.32
57616;BME280;43816;52.054;-9.494;2022-09-17T01:00:36;102200.78;;;16.37;54.82
57616;BME280;43816;52.054;-9.494;2022-09-17T01:00:47;102201.78;;;16.36;55.37
57616;BME280;43816;52.054;-9.494;2022-09-17T01:00:58;102200.88;;;16.35;55.00
57616;BME280;43816;52.054;-9.494;2022-09-17T01:01:08;102195.47;;;16.35;54.87
57616;BME280;43816;52.054;-9.494;2022-09-17T01:01:18;102197.31;;;16.35;55.15
57616;BME280;43816;52.054;-9.494;2022-09-17T01:01:29;102203.59;;;16.35;55.29
57616;BME280;43816;52.054;-9.494;2022-09-17T01:01:40;102190.91;;;16.36;55.30
57616;BME280;43816;52.054;-9.494;2022-09-17T01:01:51;102203.59;;;16.35;55.03
57616;BME280;43816;52.054;-9.494;2022-09-17T01:02:02;102200.88;;;16.35;55.20
57616;BME280;43816;52.054;-9.494;2022-09-17T01:02:14;102194.59;;;16.35;54.87
57616;BME280;43816;52.054;-9.494;2022-09-17T01:02:24;102191.88;;;16.35;55.02
57616;BME280;43816;52.054;-9.494;2022-09-17T01:02:35;102194.59;;;16.35;55.39